Arkdale, Wisconsin
Current Conditions -  °F | °C
As of 5:58 PM on Tuesday 21 Oct 2014 (Local Time) from KVOK Reporting Station
Clear Clear  
Wind Chill: 45°   Ceiling: Unl
Heat Index: 45°   Visibility: 10mi
Dew Point: 37°   Wind: 3mph
Humidity: 76%   Direction: 90°E
Pressure: 30.22"   Gusts: NA
Location:  44.03°N, 89.89°W
Report Text: KVOK 212258Z 09003KT 10SM CLR 07/03 A3022 RMK AO2A SLP243
Loading
Personal Weather Stations






























Interactive Weather Map
Tropical Storm Tracking
New forecast layout! Learn more

10-Day Weather Forecast

Advertisements
Track Severe Weather on mobile